Time;durP1;ratioP1;P1;durP2;ratioP2;P2;SDS_P1;SDS_P2;PMS_P1;PMS_P2;Temp;Humidity;BMP_temperature;BMP_pressure;BME280_temperature;BME280_humidity;BME280_pressure;Samples;Min_cycle;Max_cycle;Signal;HPM_P1;HPM_P2
2023/07/27 00:00:24;;;;;;;4.57;2.95;;;;;;;12.86;71.09;96636.66;5025731;28;20050;-79
2023/07/27 00:02:52;;;;;;;4.28;3.08;;;;;;;12.83;71.32;96636.22;5033121;28;20069;-79
2023/07/27 00:05:20;;;;;;;4.70;2.90;;;;;;;12.80;71.34;96645.28;5028220;28;20076;-79
2023/07/27 00:07:47;;;;;;;5.10;3.13;;;;;;;12.77;71.33;96637.81;5022409;28;20050;-79
2023/07/27 00:10:16;;;;;;;3.10;2.80;;;;;;;12.74;71.55;96633.75;5019364;28;20084;-78
2023/07/27 00:12:44;;;;;;;4.70;3.28;;;;;;;12.73;71.74;96637.41;5017185;28;20403;-79
2023/07/27 00:15:12;;;;;;;4.22;2.90;;;;;;;12.73;71.85;96637.41;5023130;28;20030;-77
2023/07/27 00:17:40;;;;;;;4.72;3.25;;;;;;;12.73;71.82;96626.13;5035680;28;20057;-79
2023/07/27 00:20:08;;;;;;;4.35;2.80;;;;;;;12.73;71.64;96637.41;5027352;28;20066;-79
2023/07/27 00:22:35;;;;;;;6.18;3.42;;;;;;;12.73;71.70;96632.16;5022865;28;20427;-80
2023/07/27 00:25:04;;;;;;;4.18;2.65;;;;;;;12.73;71.68;96629.53;5022412;28;20050;-79
2023/07/27 00:27:33;;;;;;;3.45;2.72;;;;;;;12.71;71.69;96628.94;5022880;28;20061;-80
2023/07/27 00:30:01;;;;;;;3.90;2.97;;;;;;;12.68;71.68;96626.72;5024471;28;20334;-80
2023/07/27 00:32:28;;;;;;;2.90;2.50;;;;;;;12.68;71.79;96629.34;5018083;28;20492;-81
2023/07/27 00:34:56;;;;;;;3.33;2.53;;;;;;;12.66;71.84;96626.09;5016210;28;20057;-80
2023/07/27 00:37:24;;;;;;;4.70;2.70;;;;;;;12.66;71.85;96620.88;5016156;28;20054;-79
2023/07/27 00:39:51;;;;;;;2.83;2.40;;;;;;;12.65;71.67;96629.69;5015846;28;20057;-79
2023/07/27 00:42:19;;;;;;;4.15;2.80;;;;;;;12.65;71.98;96621.84;5015903;28;20103;-81
2023/07/27 00:44:48;;;;;;;3.85;2.95;;;;;;;12.66;71.80;96627.88;5015453;28;20081;-80
2023/07/27 00:47:16;;;;;;;2.65;2.45;;;;;;;12.67;71.80;96617.22;5015176;28;20136;-80
2023/07/27 00:49:44;;;;;;;6.18;3.22;;;;;;;12.66;71.58;96615.63;5015447;28;20480;-80
2023/07/27 00:52:11;;;;;;;6.35;2.78;;;;;;;12.61;71.87;96612.75;5015253;28;20050;-80
2023/07/27 00:54:39;;;;;;;3.67;3.20;;;;;;;12.58;71.90;96613.97;5015323;28;20053;-80
2023/07/27 00:57:07;;;;;;;3.40;2.97;;;;;;;12.59;72.10;96612.16;5015163;28;20497;-80
2023/07/27 00:59:35;;;;;;;3.40;2.55;;;;;;;12.58;71.84;96600.09;5015423;28;20505;-79
2023/07/27 01:02:05;;;;;;;4.43;2.95;;;;;;;12.58;71.91;96607.94;5014734;28;20065;-79
2023/07/27 01:04:34;;;;;;;4.45;3.03;;;;;;;12.56;72.04;96604.69;5018636;28;20056;-80
2023/07/27 01:07:01;;;;;;;5.50;2.50;;;;;;;12.51;71.84;96604.47;5015076;28;20103;-80
2023/07/27 01:09:29;;;;;;;5.10;3.10;;;;;;;12.48;72.11;96603.03;5015230;28;20500;-80
2023/07/27 01:12:03;;;;;;;3.55;2.60;;;;;;;12.43;72.37;96599.41;5014850;28;20053;-80
2023/07/27 01:14:44;;;;;;;3.95;2.75;;;;;;;12.40;72.61;96599.78;5017498;28;20052;-80
2023/07/27 01:17:22;;;;;;;4.43;3.08;;;;;;;12.39;72.85;96593.75;5034732;28;20046;-80
2023/07/27 01:20:04;;;;;;;5.35;2.70;;;;;;;12.36;73.00;96581.84;5015025;28;20061;-80
2023/07/27 01:22:50;;;;;;;5.25;2.65;;;;;;;12.37;72.91;96577.44;5014936;28;20128;-80
2023/07/27 01:25:53;;;;;;;3.53;3.00;;;;;;;12.35;72.94;96582.88;5015043;28;20188;-80
2023/07/27 01:28:37;;;;;;;3.70;2.58;;;;;;;12.34;72.95;96576.00;5015223;28;20125;-80
2023/07/27 01:31:10;;;;;;;3.00;2.70;;;;;;;12.34;73.08;96580.44;5014194;28;20561;-80
2023/07/27 01:33:42;;;;;;;6.38;3.05;;;;;;;12.33;72.83;96573.56;5014856;28;20053;-80
2023/07/27 01:36:14;;;;;;;5.75;3.10;;;;;;;12.31;73.22;96573.78;5014661;28;20185;-80
2023/07/27 01:38:44;;;;;;;5.70;3.30;;;;;;;12.31;72.96;96567.72;5014793;28;20046;-80
2023/07/27 01:41:13;;;;;;;3.47;2.63;;;;;;;12.31;73.06;96567.72;5014067;28;20524;-80
2023/07/27 01:43:42;;;;;;;6.85;3.00;;;;;;;12.29;72.97;96560.09;5031295;28;20533;-80
2023/07/27 01:46:13;;;;;;;4.85;2.97;;;;;;;12.27;73.27;96554.25;5033879;28;20081;-80
2023/07/27 01:48:42;;;;;;;2.88;2.63;;;;;;;12.26;73.09;96552.63;5033918;28;20054;-80
2023/07/27 01:51:11;;;;;;;3.83;3.03;;;;;;;12.26;73.37;96562.28;5031521;28;20054;-80
2023/07/27 01:53:41;;;;;;;3.03;2.35;;;;;;;12.26;73.22;96557.84;5017173;28;20073;-80
2023/07/27 01:56:12;;;;;;;4.07;2.97;;;;;;;12.23;73.12;96555.63;5016203;28;20084;-80
2023/07/27 01:58:40;;;;;;;3.28;2.47;;;;;;;12.22;73.40;96546.16;5015504;28;20112;-80
2023/07/27 02:01:08;;;;;;;6.47;3.15;;;;;;;12.21;73.36;96544.56;5014753;28;20050;-80
2023/07/27 02:03:38;;;;;;;4.10;3.00;;;;;;;12.21;73.47;96539.31;5014910;28;20061;-80
2023/07/27 02:06:05;;;;;;;3.40;2.63;;;;;;;12.19;73.18;96528.25;5014636;28;20050;-79
2023/07/27 02:08:33;;;;;;;4.32;2.72;;;;;;;12.19;73.33;96533.47;5014525;28;20061;-80
2023/07/27 02:11:04;;;;;;;3.70;2.85;;;;;;;12.20;73.33;96536.91;5013890;28;20050;-80
2023/07/27 02:13:36;;;;;;;3.15;2.78;;;;;;;12.19;73.44;96530.88;5014314;28;20502;-80
2023/07/27 02:16:12;;;;;;;3.08;2.65;;;;;;;12.20;73.95;96531.66;5014305;28;20469;-80
2023/07/27 02:18:43;;;;;;;2.85;2.42;;;;;;;12.20;73.47;96532.50;5014161;28;20489;-80
2023/07/27 02:21:12;;;;;;;3.10;2.88;;;;;;;12.17;73.58;96527.63;5013875;28;20056;-80
2023/07/27 02:23:40;;;;;;;4.45;2.95;;;;;;;12.20;73.38;96526.44;5013637;28;20042;-80
2023/07/27 02:26:08;;;;;;;2.90;2.55;;;;;;;12.18;73.69;96525.81;5013946;28;20100;-80
2023/07/27 02:28:36;;;;;;;5.68;3.30;;;;;;;12.16;73.59;96518.19;5013842;28;20601;-80
2023/07/27 02:31:03;;;;;;;6.50;2.72;;;;;;;12.16;73.73;96511.16;5013548;28;20493;-80
2023/07/27 02:33:31;;;;;;;2.78;2.38;;;;;;;12.15;73.90;96509.50;5013674;28;20517;-80
2023/07/27 02:36:00;;;;;;;3.78;2.47;;;;;;;12.15;74.29;96514.75;5013784;28;20489;-80
2023/07/27 02:38:28;;;;;;;6.10;2.90;;;;;;;12.18;73.92;96507.50;5013477;28;20144;-80
2023/07/27 02:40:55;;;;;;;8.15;3.95;;;;;;;12.17;74.02;96504.09;5013401;28;20046;-79
2023/07/27 02:43:23;;;;;;;3.90;2.83;;;;;;;12.18;74.06;96503.13;5013319;28;20046;-80
2023/07/27 02:45:51;;;;;;;3.47;2.53;;;;;;;12.19;74.02;96501.31;5013454;28;20406;-80
2023/07/27 02:48:18;;;;;;;4.30;2.60;;;;;;;12.18;74.22;96492.66;5014907;28;20464;-80
2023/07/27 02:50:50;;;;;;;4.82;2.97;;;;;;;12.22;74.25;96501.69;5015629;28;20041;-80
2023/07/27 02:53:19;;;;;;;3.28;3.00;;;;;;;12.23;74.53;96502.53;5028803;28;20058;-80
2023/07/27 02:55:56;;;;;;;2.90;2.50;;;;;;;12.27;74.80;96501.16;5024817;28;20050;-80
2023/07/27 02:58:24;;;;;;;2.95;2.65;;;;;;;12.28;74.12;96500.94;5015213;28;20469;-80
2023/07/27 03:00:54;;;;;;;4.13;2.83;;;;;;;12.29;73.92;96505.16;5013646;28;20108;-80
2023/07/27 03:03:21;;;;;;;3.83;3.20;;;;;;;12.30;74.28;96506.78;5013159;28;20058;-80
2023/07/27 03:05:56;;;;;;;4.30;2.53;;;;;;;12.31;74.43;96502.34;5013405;28;20137;-80
2023/07/27 03:08:25;;;;;;;2.70;2.35;;;;;;;12.28;74.07;96500.94;5012864;28;20108;-80
2023/07/27 03:10:53;;;;;;;4.07;2.75;;;;;;;12.27;73.98;96509.00;5012658;28;20080;-80
2023/07/27 03:13:21;;;;;;;5.35;3.05;;;;;;;12.24;73.96;96507.53;5014373;28;20057;-80
2023/07/27 03:15:48;;;;;;;4.32;2.85;;;;;;;12.24;74.38;96507.53;5013429;28;20058;-79
2023/07/27 03:18:16;;;;;;;4.35;3.10;;;;;;;12.25;74.21;96503.94;5013483;28;20469;-80
2023/07/27 03:20:44;;;;;;;3.42;2.58;;;;;;;12.26;74.06;96504.75;5012453;28;20569;-80
2023/07/27 03:23:12;;;;;;;6.05;2.70;;;;;;;12.25;74.10;96503.94;5012969;28;20066;-79
2023/07/27 03:25:41;;;;;;;3.25;2.47;;;;;;;12.26;73.98;96505.53;5031506;28;20050;-80
2023/07/27 03:28:09;;;;;;;3.05;2.50;;;;;;;12.25;73.87;96509.19;5022123;28;20050;-80
2023/07/27 03:30:38;;;;;;;3.15;2.85;;;;;;;12.23;73.92;96499.91;5013676;28;20054;-80
2023/07/27 03:33:06;;;;;;;4.18;3.50;;;;;;;12.20;73.97;96500.28;5013253;28;20068;-80
2023/07/27 03:35:36;;;;;;;4.18;2.60;;;;;;;12.15;74.18;96493.03;5012816;28;20050;-80
2023/07/27 03:38:04;;;;;;;3.90;2.90;;;;;;;12.11;74.22;96489.19;5013256;28;20057;-80
2023/07/27 03:40:31;;;;;;;4.70;2.55;;;;;;;12.09;74.55;96492.00;5012527;28;20426;-80
2023/07/27 03:43:00;;;;;;;3.05;2.60;;;;;;;12.09;74.81;96493.78;5012811;28;20481;-80
2023/07/27 03:45:28;;;;;;;4.63;2.88;;;;;;;12.10;74.74;96488.38;5012514;28;20490;-79
2023/07/27 03:47:56;;;;;;;3.33;3.03;;;;;;;12.10;74.92;96491.00;5012616;28;20050;-80
2023/07/27 03:50:23;;;;;;;5.15;3.70;;;;;;;12.12;74.94;96496.84;5012438;28;20046;-79
2023/07/27 03:52:51;;;;;;;3.22;2.92;;;;;;;12.14;75.07;96499.28;5012886;28;20076;-80
2023/07/27 03:55:19;;;;;;;6.63;3.10;;;;;;;12.15;75.20;96493.03;5013104;28;20116;-80
2023/07/27 03:57:47;;;;;;;5.05;3.00;;;;;;;12.16;75.19;96494.66;5012872;28;20053;-80
2023/07/27 04:00:16;;;;;;;3.38;2.97;;;;;;;12.18;75.12;96492.66;5012302;28;20177;-80
2023/07/27 04:02:44;;;;;;;4.07;2.85;;;;;;;12.19;75.39;96494.25;5012631;28;20422;-80
2023/07/27 04:05:12;;;;;;;3.25;2.88;;;;;;;12.21;75.49;96497.47;5012614;28;20104;-80
2023/07/27 04:07:39;;;;;;;4.15;3.17;;;;;;;12.24;75.75;96491.06;5012584;28;20096;-79
2023/07/27 04:10:07;;;;;;;3.75;3.10;;;;;;;12.28;75.54;96487.84;5012412;28;20096;-80
2023/07/27 04:12:35;;;;;;;4.90;3.15;;;;;;;12.31;75.67;96484.03;5012704;28;20058;-80
2023/07/27 04:15:03;;;;;;;3.42;3.13;;;;;;;12.34;75.48;96487.06;5012498;28;20057;-80
2023/07/27 04:17:32;;;;;;;5.03;3.10;;;;;;;12.35;75.64;96480.84;5012403;28;20049;-80
2023/07/27 04:19:59;;;;;;;3.85;3.03;;;;;;;12.37;75.80;96480.63;5012199;28;20077;-80
2023/07/27 04:22:27;;;;;;;3.35;2.90;;;;;;;12.39;75.55;96483.06;5015356;28;20057;-80
2023/07/27 04:24:55;;;;;;;3.35;3.05;;;;;;;12.40;75.69;96471.59;5016163;28;20058;-80
2023/07/27 04:27:23;;;;;;;9.20;3.38;;;;;;;12.42;75.74;96472.19;5016751;28;20057;-80
2023/07/27 04:29:50;;;;;;;4.45;2.85;;;;;;;12.46;75.54;96469.03;5015923;28;20050;-80
2023/07/27 04:32:18;;;;;;;4.20;2.67;;;;;;;12.50;75.50;96474.66;5016336;28;20482;-80
2023/07/27 04:34:47;;;;;;;3.58;2.67;;;;;;;12.53;75.54;96455.97;5018906;28;20065;-80
2023/07/27 04:37:14;;;;;;;3.78;2.67;;;;;;;12.57;75.46;96460.59;5015661;28;20096;-80
2023/07/27 04:39:42;;;;;;;4.68;3.10;;;;;;;12.64;75.57;96460.63;5015941;28;20481;-80
2023/07/27 04:42:10;;;;;;;4.22;3.08;;;;;;;12.70;75.47;96459.00;5015168;28;20046;-80
2023/07/27 04:44:37;;;;;;;4.25;3.15;;;;;;;12.76;75.21;96459.00;5015639;28;20490;-79
2023/07/27 04:47:05;;;;;;;5.75;3.08;;;;;;;12.81;75.02;96460.22;5015492;28;20092;-79
2023/07/27 04:49:33;;;;;;;3.72;2.80;;;;;;;12.84;74.94;96460.66;5015697;28;20058;-80
2023/07/27 04:52:02;;;;;;;5.45;3.08;;;;;;;12.87;74.77;96448.97;5014900;28;20050;-80
2023/07/27 04:54:29;;;;;;;4.25;2.78;;;;;;;12.88;75.05;96448.78;5015343;28;20046;-80
2023/07/27 04:56:57;;;;;;;3.20;2.80;;;;;;;12.90;74.83;96446.78;5016692;28;20505;-80
2023/07/27 04:59:25;;;;;;;4.28;2.58;;;;;;;12.94;74.61;96447.16;5015501;28;20061;-79
2023/07/27 05:01:52;;;;;;;3.25;2.85;;;;;;;12.95;74.52;96449.59;5015967;28;20050;-80
2023/07/27 05:04:20;;;;;;;3.60;2.80;;;;;;;12.98;74.61;96443.13;5017371;28;20135;-80
2023/07/27 05:06:48;;;;;;;3.25;2.80;;;;;;;13.01;74.36;96442.75;5017399;28;20054;-80
2023/07/27 05:09:17;;;;;;;3.42;3.13;;;;;;;13.04;74.35;96439.72;5015075;28;20490;-80
2023/07/27 05:11:44;;;;;;;12.90;4.15;;;;;;;13.06;74.10;96435.09;5015079;28;20061;-80
2023/07/27 05:14:12;;;;;;;5.57;3.17;;;;;;;13.11;74.12;96429.25;5015465;28;20054;-80
2023/07/27 05:16:40;;;;;;;7.15;3.80;;;;;;;13.15;74.08;96422.59;5015062;28;20045;-80
2023/07/27 05:19:07;;;;;;;4.38;3.38;;;;;;;13.20;74.04;96423.59;5015150;28;20054;-80
2023/07/27 05:21:35;;;;;;;5.57;3.35;;;;;;;13.26;73.98;96423.81;5014636;28;20422;-80
2023/07/27 05:24:03;;;;;;;5.05;3.08;;;;;;;13.31;73.67;96426.63;5015906;28;20057;-80
2023/07/27 05:26:32;;;;;;;6.47;3.20;;;;;;;13.36;73.56;96427.66;5014714;28;20505;-80
2023/07/27 05:29:00;;;;;;;4.60;3.53;;;;;;;13.42;73.46;96423.41;5014445;28;20489;-80
2023/07/27 05:31:27;;;;;;;4.15;3.30;;;;;;;13.48;73.17;96430.44;5014143;28;20057;-79
2023/07/27 05:33:55;;;;;;;4.32;3.60;;;;;;;13.53;73.32;96424.59;5028045;28;20109;-80
2023/07/27 05:36:23;;;;;;;4.72;3.78;;;;;;;13.56;73.27;96429.44;5025267;28;20049;-80
2023/07/27 05:38:50;;;;;;;4.65;3.80;;;;;;;13.62;73.30;96425.19;5014582;28;20050;-79
2023/07/27 05:41:18;;;;;;;6.05;3.80;;;;;;;13.68;73.06;96422.53;5014228;28;20069;-80
2023/07/27 05:43:47;;;;;;;6.15;4.38;;;;;;;13.75;72.83;96425.97;5021542;28;20041;-80
2023/07/27 05:46:15;;;;;;;6.97;4.55;;;;;;;13.80;72.79;96422.75;5026889;28;20055;-80
2023/07/27 05:48:42;;;;;;;7.40;4.85;;;;;;;13.85;72.76;96422.91;5019478;28;20057;-80
2023/07/27 05:51:10;;;;;;;4.03;3.38;;;;;;;13.91;72.34;96429.16;5015174;28;20050;-80
2023/07/27 05:53:38;;;;;;;4.75;3.80;;;;;;;13.93;72.06;96433.19;5014599;28;20055;-80
2023/07/27 05:56:05;;;;;;;6.50;4.50;;;;;;;13.97;72.15;96429.13;5014382;28;20050;-80
2023/07/27 05:58:33;;;;;;;5.82;4.95;;;;;;;14.03;72.10;96430.09;5014496;28;20489;-80
2023/07/27 06:01:03;;;;;;;9.18;5.18;;;;;;;14.09;72.15;96428.50;5013877;28;20103;-80
2023/07/27 06:03:32;;;;;;;5.85;5.03;;;;;;;14.14;71.93;96429.47;5014228;28;20172;-80
2023/07/27 06:06:00;;;;;;;7.78;4.50;;;;;;;14.18;71.80;96429.84;5014089;28;20054;-80
2023/07/27 06:08:28;;;;;;;4.90;4.07;;;;;;;14.19;71.53;96426.19;5014278;28;20053;-80
2023/07/27 06:11:03;;;;;;;4.55;3.33;;;;;;;14.21;71.68;96429.44;5013776;28;20132;-80
2023/07/27 06:13:32;;;;;;;4.10;2.72;;;;;;;14.22;71.45;96426.59;5013947;28;20054;-80
2023/07/27 06:16:00;;;;;;;3.25;2.95;;;;;;;14.27;71.46;96427.81;5018730;28;20046;-80
2023/07/27 06:18:29;;;;;;;3.80;2.80;;;;;;;14.30;71.59;96422.94;5027080;28;20130;-80
2023/07/27 06:20:57;;;;;;;4.35;2.85;;;;;;;14.38;71.26;96427.94;5047276;22;20079;-77
2023/07/27 06:23:25;;;;;;;3.58;2.40;;;;;;;14.42;71.20;96429.13;5035095;28;20489;-77
2023/07/27 06:25:52;;;;;;;6.35;3.00;;;;;;;14.47;71.05;96428.50;5035166;28;20049;-76
2023/07/27 06:28:20;;;;;;;3.13;2.50;;;;;;;14.53;70.96;96427.66;5036079;28;20420;-78
2023/07/27 06:30:48;;;;;;;3.30;2.08;;;;;;;14.60;70.84;96423.19;5036263;28;20053;-77
2023/07/27 06:33:15;;;;;;;2.65;2.20;;;;;;;14.67;70.83;96419.72;5036538;28;20053;-79
2023/07/27 06:35:45;;;;;;;4.95;2.72;;;;;;;14.73;70.81;96432.00;5036367;28;20083;-77
2023/07/27 06:38:13;;;;;;;4.03;3.63;;;;;;;14.79;70.72;96426.72;5036865;28;20405;-78
2023/07/27 06:40:40;;;;;;;10.60;7.10;;;;;;;14.87;70.50;96430.09;5036849;28;20476;-77
2023/07/27 06:43:08;;;;;;;4.68;3.03;;;;;;;14.93;70.06;96427.44;5037347;28;20085;-78
2023/07/27 06:45:35;;;;;;;2.65;2.40;;;;;;;15.00;69.73;96425.56;5037055;28;20049;-79
2023/07/27 06:48:03;;;;;;;5.85;2.60;;;;;;;15.07;69.70;96428.16;5036888;28;20104;-77
2023/07/27 06:50:31;;;;;;;3.63;2.55;;;;;;;15.13;69.86;96416.78;5036822;28;20050;-80
2023/07/27 06:53:00;;;;;;;2.35;2.15;;;;;;;15.22;69.18;96414.69;5036824;28;20049;-78
2023/07/27 06:55:28;;;;;;;3.42;1.90;;;;;;;15.28;68.91;96413.81;5036926;28;20065;-80
2023/07/27 06:57:56;;;;;;;3.22;1.70;;;;;;;15.36;68.74;96421.44;5036634;28;20060;-77
2023/07/27 07:00:24;;;;;;;3.13;1.70;;;;;;;15.46;68.20;96420.94;5035046;28;20064;-76
2023/07/27 07:02:51;;;;;;;2.92;2.05;;;;;;;15.54;68.41;96418.00;5035234;28;20434;-77
2023/07/27 07:05:20;;;;;;;3.75;2.22;;;;;;;15.61;68.40;96408.25;5035826;28;20056;-77
2023/07/27 07:07:48;;;;;;;1.70;1.60;;;;;;;15.70;67.20;96400.88;5035226;28;20061;-78
2023/07/27 07:10:18;;;;;;;2.92;1.70;;;;;;;15.77;67.16;96396.38;5035235;28;20053;-77
2023/07/27 07:12:46;;;;;;;2.45;2.00;;;;;;;15.89;66.84;96401.69;5034815;28;20531;-79
2023/07/27 07:15:13;;;;;;;3.33;2.40;;;;;;;15.99;67.83;96399.38;5034334;28;20060;-77
2023/07/27 07:17:41;;;;;;;3.03;2.20;;;;;;;16.06;67.23;96394.81;5033797;28;20041;-77
2023/07/27 07:20:09;;;;;;;3.80;1.90;;;;;;;16.13;65.89;96405.25;5034322;28;20059;-77
2023/07/27 07:22:37;;;;;;;4.38;1.85;;;;;;;16.21;67.32;96404.16;5033476;28;20156;-79
2023/07/27 07:25:05;;;;;;;5.22;2.90;;;;;;;16.29;67.20;96398.59;5033403;28;20509;-79
2023/07/27 07:27:34;;;;;;;3.33;1.70;;;;;;;16.34;65.74;96398.72;5034536;28;20045;-79
2023/07/27 07:30:04;;;;;;;2.10;1.60;;;;;;;16.40;65.25;96394.41;5034482;28;20076;-78
2023/07/27 07:32:32;;;;;;;2.83;2.40;;;;;;;16.45;65.27;96397.97;5032784;28;20045;-77
2023/07/27 07:35:02;;;;;;;5.35;2.72;;;;;;;16.51;66.11;96395.44;5034628;28;20049;-77
2023/07/27 07:37:30;;;;;;;2.95;2.25;;;;;;;16.54;65.01;96395.03;5034235;28;20520;-77
2023/07/27 07:39:57;;;;;;;2.45;2.03;;;;;;;16.56;65.17;96388.50;5034721;28;20077;-79
2023/07/27 07:42:25;;;;;;;6.50;2.45;;;;;;;16.60;65.51;96378.34;5034821;28;20111;-78
2023/07/27 07:44:54;;;;;;;2.67;2.05;;;;;;;16.63;64.97;96383.13;5034448;28;20131;-78
2023/07/27 07:47:21;;;;;;;4.28;2.10;;;;;;;16.65;65.56;96365.28;5033566;28;20072;-79
2023/07/27 07:49:49;;;;;;;3.17;2.10;;;;;;;16.65;65.47;96379.25;5033370;28;20406;-80
2023/07/27 07:52:17;;;;;;;2.50;2.30;;;;;;;16.64;65.39;96361.84;5033319;28;20467;-79
2023/07/27 07:54:44;;;;;;;2.50;1.92;;;;;;;16.64;65.39;96358.41;5034550;28;20080;-78
2023/07/27 07:57:12;;;;;;;5.63;2.38;;;;;;;16.65;66.02;96365.28;5037940;28;20500;-79
2023/07/27 07:59:39;;;;;;;2.30;2.10;;;;;;;16.68;65.72;96363.00;5037921;28;20123;-79
2023/07/27 08:02:08;;;;;;;3.92;2.13;;;;;;;16.70;66.26;96365.41;5038557;28;20562;-78
2023/07/27 08:04:36;;;;;;;4.55;2.50;;;;;;;16.73;66.54;96366.81;5038035;28;20491;-78
2023/07/27 08:07:04;;;;;;;4.25;2.17;;;;;;;16.76;66.16;96361.88;5037395;28;20099;-77
2023/07/27 08:09:32;;;;;;;3.65;2.55;;;;;;;16.80;66.45;96363.06;5037807;28;20048;-77
2023/07/27 08:11:59;;;;;;;4.75;2.40;;;;;;;16.81;66.84;96350.69;5037667;28;20088;-77
2023/07/27 08:14:27;;;;;;;3.90;2.42;;;;;;;16.84;66.30;96343.13;5039179;28;20046;-77
2023/07/27 08:16:54;;;;;;;2.33;1.85;;;;;;;16.85;66.22;96344.72;5039617;28;20041;-78
2023/07/27 08:19:24;;;;;;;3.10;2.40;;;;;;;16.91;66.23;96345.66;5038880;28;20460;-80
2023/07/27 08:21:51;;;;;;;3.92;2.53;;;;;;;16.96;65.92;96339.69;5038505;28;20050;-78
2023/07/27 08:24:19;;;;;;;5.07;2.20;;;;;;;17.01;66.06;96334.53;5038411;28;20576;-78
2023/07/27 08:26:49;;;;;;;3.08;1.92;;;;;;;17.07;66.01;96344.16;5038515;28;20080;-77
2023/07/27 08:29:17;;;;;;;2.63;2.15;;;;;;;17.11;66.45;96339.25;5038842;28;20053;-77
2023/07/27 08:31:44;;;;;;;4.10;2.38;;;;;;;17.17;67.33;96340.97;5036919;28;20096;-77
2023/07/27 08:34:12;;;;;;;6.03;2.00;;;;;;;17.21;66.07;96340.28;5037263;28;20508;-77
2023/07/27 08:36:41;;;;;;;2.85;1.50;;;;;;;17.26;65.87;96340.38;5037941;28;20050;-79
2023/07/27 08:39:08;;;;;;;2.33;2.10;;;;;;;17.29;65.71;96334.66;5037384;28;20050;-78
2023/07/27 08:41:36;;;;;;;3.55;2.05;;;;;;;17.34;65.33;96336.63;5036967;28;20116;-77
2023/07/27 08:44:05;;;;;;;5.07;2.00;;;;;;;17.41;65.13;96336.50;5037418;28;20045;-77
2023/07/27 08:46:33;;;;;;;6.28;2.28;;;;;;;17.48;64.79;96337.16;5037279;28;20080;-75
2023/07/27 08:49:02;;;;;;;2.47;2.28;;;;;;;17.53;65.33;96334.63;5038246;28;20053;-77
2023/07/27 08:51:34;;;;;;;2.40;2.15;;;;;;;17.57;64.83;96333.13;5038714;28;20046;-78
2023/07/27 08:54:03;;;;;;;3.58;2.40;;;;;;;17.63;64.59;96340.13;5037870;28;20099;-77
2023/07/27 08:56:31;;;;;;;2.85;2.05;;;;;;;17.63;63.93;96324.28;5037111;28;20057;-80
2023/07/27 08:58:59;;;;;;;6.35;2.13;;;;;;;17.64;63.99;96325.09;5036986;28;20085;-77
2023/07/27 09:01:27;;;;;;;3.60;2.15;;;;;;;17.66;64.27;96329.09;5038294;28;20076;-77
2023/07/27 09:03:55;;;;;;;5.03;1.73;;;;;;;17.70;64.03;96324.16;5038440;28;20049;-77
2023/07/27 09:06:37;;;;;;;1.67;1.58;;;;;;;17.74;63.84;96327.13;5037961;28;20050;-77
2023/07/27 09:09:16;;;;;;;;;;;;;;;17.78;64.35;96320.38;5037363;28;20562;-78
2023/07/27 09:11:46;;;;;;;2.22;1.60;;;;;;;17.82;63.51;96332.06;5037258;28;19921;-77
2023/07/27 09:14:16;;;;;;;2.10;1.70;;;;;;;17.82;63.90;96324.97;5036920;28;20045;-76
2023/07/27 09:16:44;;;;;;;2.15;1.60;;;;;;;17.88;63.94;96325.84;5037238;28;20061;-76
2023/07/27 09:19:12;;;;;;;4.72;2.00;;;;;;;17.93;64.68;96325.97;5037295;28;20133;-75
2023/07/27 09:21:41;;;;;;;5.15;1.80;;;;;;;17.95;63.70;96334.44;5036914;28;20053;-76
2023/07/27 09:24:11;;;;;;;3.17;1.85;;;;;;;17.98;63.77;96325.25;5037452;28;20045;-77
2023/07/27 09:26:46;;;;;;;2.25;1.70;;;;;;;18.00;62.43;96323.97;5037250;28;20045;-77
2023/07/27 09:29:15;;;;;;;4.07;2.05;;;;;;;18.01;62.11;96319.50;5037858;28;20053;-76
2023/07/27 09:31:47;;;;;;;3.70;2.40;;;;;;;18.02;61.24;96319.28;5038032;28;20057;-77
2023/07/27 09:34:15;;;;;;;2.35;1.95;;;;;;;18.04;61.74;96314.56;5037026;28;20296;-76
2023/07/27 09:36:43;;;;;;;2.65;1.75;;;;;;;18.07;62.02;96313.28;5036687;28;20053;-77
2023/07/27 09:39:11;;;;;;;1.90;1.80;;;;;;;18.07;62.07;96311.44;5036801;28;20130;-77
2023/07/27 09:41:39;;;;;;;17.63;2.78;;;;;;;18.09;61.72;96317.28;5036578;28;20049;-77
2023/07/27 09:44:13;;;;;;;6.70;1.88;;;;;;;18.11;61.37;96322.34;5036042;28;20107;-76
2023/07/27 09:46:41;;;;;;;3.00;1.63;;;;;;;18.15;60.70;96326.09;5036423;28;20083;-78
2023/07/27 09:49:09;;;;;;;3.33;1.98;;;;;;;18.15;60.32;96325.28;5036272;28;20041;-78
2023/07/27 09:51:38;;;;;;;8.13;2.50;;;;;;;18.18;59.48;96322.19;5036412;28;20060;-76
2023/07/27 09:54:06;;;;;;;6.68;2.00;;;;;;;18.21;60.11;96321.69;5036264;28;20099;-75
2023/07/27 09:56:35;;;;;;;3.97;1.20;;;;;;;18.24;59.02;96318.59;5036351;28;20092;-77
2023/07/27 09:59:02;;;;;;;2.28;1.50;;;;;;;18.28;60.32;96319.75;5037502;28;20049;-76
2023/07/27 10:01:33;;;;;;;3.88;1.40;;;;;;;18.30;58.79;96312.34;5036984;28;20104;-77
2023/07/27 10:04:00;;;;;;;6.47;1.52;;;;;;;18.28;58.20;96319.75;5038013;28;20401;-77
2023/07/27 10:06:30;;;;;;;1.40;1.08;;;;;;;18.27;59.26;96313.63;5036214;28;20564;-76
2023/07/27 10:08:58;;;;;;;4.43;1.42;;;;;;;18.28;59.33;96309.19;5037401;28;20045;-79
2023/07/27 10:11:30;;;;;;;7.65;2.28;;;;;;;18.30;59.72;96302.63;5036747;28;20045;-76
2023/07/27 10:14:16;;;;;;;7.38;2.30;;;;;;;18.34;58.32;96313.47;5037490;28;20053;-78
2023/07/27 10:16:59;;;;;;;14.18;3.90;;;;;;;18.37;59.64;96317.50;5036055;28;20476;-76
2023/07/27 10:19:29;;;;;;;12.43;2.47;;;;;;;18.37;59.83;96313.03;5035430;28;20071;-75
2023/07/27 10:21:56;;;;;;;2.42;1.42;;;;;;;18.43;58.68;96316.53;5035747;28;20523;-77
2023/07/27 10:24:24;;;;;;;2.10;1.20;;;;;;;18.46;59.94;96305.50;5036111;28;20057;-79
2023/07/27 10:26:52;;;;;;;7.72;2.42;;;;;;;18.51;59.96;96314.31;5039200;28;20051;-78
2023/07/27 10:29:22;;;;;;;2.67;1.30;;;;;;;18.59;59.31;96323.69;5039068;28;20052;-76
2023/07/27 10:32:05;;;;;;;1.73;1.40;;;;;;;18.63;58.87;96324.00;5037123;28;20076;-78
2023/07/27 10:34:33;;;;;;;1.00;1.00;;;;;;;18.67;58.47;96317.19;5037539;28;20109;-77
2023/07/27 10:37:08;;;;;;;1.80;1.10;;;;;;;18.77;59.75;96322.66;5039180;28;20049;-80
2023/07/27 10:39:44;;;;;;;1.45;1.05;;;;;;;18.88;59.11;96318.34;5037586;28;20048;-77
2023/07/27 10:42:15;;;;;;;2.42;1.27;;;;;;;18.96;58.50;96315.31;5044319;28;20056;-78
2023/07/27 10:44:45;;;;;;;1.08;0.98;;;;;;;19.02;58.08;96318.81;5050037;28;20068;-78
2023/07/27 10:47:15;;;;;;;3.25;1.08;;;;;;;19.03;58.18;96315.16;5049841;28;20116;-79
2023/07/27 10:49:44;;;;;;;3.55;1.35;;;;;;;19.02;58.51;96310.88;5049038;28;20052;-76
2023/07/27 10:52:16;;;;;;;1.38;0.85;;;;;;;19.02;57.34;96316.19;5048594;28;20067;-81
2023/07/27 10:54:44;;;;;;;1.33;1.08;;;;;;;19.02;57.96;96305.59;5049103;28;20080;-80
2023/07/27 10:57:14;;;;;;;2.33;1.33;;;;;;;19.00;58.35;96295.28;5049882;28;20057;-80
2023/07/27 10:59:43;;;;;;;1.67;1.30;;;;;;;18.97;58.05;96294.97;5052697;28;20053;-82
2023/07/27 11:02:15;;;;;;;1.52;1.25;;;;;;;18.94;57.67;96288.31;5051829;28;20045;-80
2023/07/27 11:04:44;;;;;;;2.10;1.30;;;;;;;18.92;58.44;96288.56;5051637;28;20136;-79
2023/07/27 11:07:12;;;;;;;1.10;1.00;;;;;;;18.89;57.66;96294.34;5045998;28;20045;-79
2023/07/27 11:09:46;;;;;;;2.53;0.98;;;;;;;18.85;57.64;96293.22;5036816;28;20708;-77
2023/07/27 11:12:13;;;;;;;3.22;1.45;;;;;;;18.83;58.62;96283.94;5036294;28;20128;-78
2023/07/27 11:14:41;;;;;;;2.25;1.35;;;;;;;18.81;59.53;96281.53;5037764;28;20053;-79
2023/07/27 11:17:09;;;;;;;1.40;1.30;;;;;;;18.81;58.23;96268.31;5037136;28;20085;-78
2023/07/27 11:19:38;;;;;;;1.40;1.30;;;;;;;18.83;58.48;96263.59;5036817;28;20050;-79
2023/07/27 11:22:06;;;;;;;16.33;3.15;;;;;;;18.89;59.46;96272.38;5035837;28;20111;-79
2023/07/27 11:24:34;;;;;;;4.60;1.52;;;;;;;18.89;58.02;96267.91;5036940;28;20049;-77
2023/07/27 11:27:02;;;;;;;2.25;1.50;;;;;;;18.89;58.40;96256.53;5036488;28;20053;-77
2023/07/27 11:29:32;;;;;;;2.53;1.10;;;;;;;18.89;59.26;96249.41;5038994;28;20046;-78
2023/07/27 11:32:00;;;;;;;2.67;1.45;;;;;;;18.90;60.26;96237.78;5040405;28;20061;-79
2023/07/27 11:34:30;;;;;;;1.40;1.00;;;;;;;18.91;58.79;96231.47;5042090;28;20045;-78
2023/07/27 11:37:00;;;;;;;3.25;1.75;;;;;;;18.94;60.40;96223.03;5040685;28;20058;-79
2023/07/27 11:39:28;;;;;;;30.95;4.78;;;;;;;18.96;60.12;96212.25;5041411;28;20045;-78
2023/07/27 11:41:55;;;;;;;5.75;1.73;;;;;;;19.00;58.85;96209.88;5041665;28;20095;-78